Time;durP1;ratioP1;P1;durP2;ratioP2;P2;SDS_P1;SDS_P2;PMS_P1;PMS_P2;Temp;Humidity;BMP_temperature;BMP_pressure;BME280_temperature;BME280_humidity;BME280_pressure;Samples;Min_cycle;Max_cycle;Signal;HPM_P1;HPM_P2
2020/12/25 00:02:03;;;;;;;2.25;1.50;;;;;;;6.57;100.00;97385.56;5014274;28;20092;-82
2020/12/25 00:04:29;;;;;;;0.80;0.77;;;;;;;6.47;100.00;97392.69;5018579;28;20032;-81
2020/12/25 00:06:54;;;;;;;2.38;1.30;;;;;;;6.56;100.00;97411.91;5026323;28;20061;-81
2020/12/25 00:09:19;;;;;;;;;;;;;;;6.56;100.00;97414.63;5002887;28;20541;-83
2020/12/25 00:11:45;;;;;;;1.00;0.93;;;;;;;6.50;100.00;97391.31;5011854;28;19914;-80
2020/12/25 00:14:11;;;;;;;;;;;;;;;6.64;100.00;97405.09;5012048;28;20132;-83
2020/12/25 00:16:36;;;;;;;1.02;0.80;;;;;;;6.67;100.00;97401.78;4993364;28;20317;-81
2020/12/25 00:19:02;;;;;;;1.45;0.95;;;;;;;6.72;100.00;97401.75;4993610;28;20038;-78
2020/12/25 00:21:28;;;;;;;1.67;1.42;;;;;;;6.60;100.00;97385.00;5011054;28;20076;-82
2020/12/25 00:23:53;;;;;;;1.00;0.90;;;;;;;6.59;100.00;97369.78;5010760;28;20422;-81
2020/12/25 00:26:22;;;;;;;;;;;;;;;6.61;100.00;97378.47;5010920;28;20018;-81
2020/12/25 00:28:47;;;;;;;0.95;0.93;;;;;;;6.55;100.00;97368.75;5011430;28;20417;-81
2020/12/25 00:31:30;;;;;;;1.73;1.00;;;;;;;6.62;100.00;97389.06;5009318;28;20026;-83
2020/12/25 00:34:03;;;;;;;0.90;0.80;;;;;;;6.70;100.00;97393.06;5005726;28;20033;-82
2020/12/25 00:36:34;;;;;;;0.50;0.50;;;;;;;6.62;100.00;97385.50;5026927;28;20076;-82
2020/12/25 00:39:01;;;;;;;2.33;1.13;;;;;;;6.58;100.00;97381.75;5011504;28;20030;-84
2020/12/25 00:41:27;;;;;;;6.68;2.13;;;;;;;6.62;100.00;97399.09;5011693;28;20388;-83
2020/12/25 00:43:53;;;;;;;1.38;0.85;;;;;;;6.52;100.00;97378.25;5011465;28;20021;-81
2020/12/25 00:46:19;;;;;;;2.78;1.58;;;;;;;6.65;100.00;97393.91;5010428;28;20121;-80
2020/12/25 00:48:45;;;;;;;0.60;0.60;;;;;;;6.58;100.00;97398.06;5011194;28;20030;-82
2020/12/25 00:51:21;;;;;;;0.75;0.75;;;;;;;6.52;100.00;97380.16;5010248;28;20104;-80
2020/12/25 00:53:47;;;;;;;0.40;0.40;;;;;;;6.63;100.00;97400.72;5011489;28;20506;-81
2020/12/25 00:56:13;;;;;;;0.55;0.55;;;;;;;6.65;100.00;97412.13;5010418;28;20526;-82
2020/12/25 00:58:40;;;;;;;1.55;1.08;;;;;;;6.63;100.00;97415.13;5011915;28;20482;-85
2020/12/25 01:01:10;;;;;;;0.60;0.60;;;;;;;6.73;100.00;97420.50;5012460;28;20373;-84
2020/12/25 01:03:37;;;;;;;0.82;0.75;;;;;;;6.64;100.00;97416.75;4995129;28;20041;-86
2020/12/25 01:06:11;;;;;;;1.15;1.05;;;;;;;6.52;100.00;97431.78;5012214;28;20594;-85
2020/12/25 01:08:37;;;;;;;1.05;0.90;;;;;;;6.63;100.00;97446.94;5011348;28;20046;-86
2020/12/25 01:11:04;;;;;;;3.55;1.63;;;;;;;6.58;100.00;97446.97;5011762;28;20026;-86
2020/12/25 01:13:30;;;;;;;1.67;1.35;;;;;;;6.50;100.00;97447.56;5013702;28;20814;-84
2020/12/25 01:16:07;;;;;;;2.45;1.15;;;;;;;6.41;100.00;97434.56;5031756;28;20025;-83
2020/12/25 01:18:33;;;;;;;1.77;1.00;;;;;;;6.45;100.00;97443.75;5031146;28;20124;-84
2020/12/25 01:20:59;;;;;;;1.35;0.80;;;;;;;6.44;100.00;97441.34;5030637;28;20112;-84
2020/12/25 01:23:25;;;;;;;1.00;0.88;;;;;;;6.57;100.00;97445.34;5013848;28;20080;-84
2020/12/25 01:25:50;;;;;;;;;;;;;;;6.56;100.00;97451.84;5031852;28;20040;-84
2020/12/25 01:28:16;;;;;;;0.68;0.68;;;;;;;6.51;100.00;97449.19;5031415;28;19913;-86
2020/12/25 01:30:42;;;;;;;0.70;0.70;;;;;;;6.62;100.00;97458.88;5031571;28;20040;-84
2020/12/25 01:33:07;;;;;;;0.63;0.63;;;;;;;6.67;100.00;97464.28;5031490;28;20075;-84
2020/12/25 01:35:33;;;;;;;0.77;0.77;;;;;;;6.55;100.00;97447.53;5031705;28;20033;-85
2020/12/25 01:37:58;;;;;;;0.68;0.60;;;;;;;6.56;100.00;97454.56;5013952;28;20021;-86
2020/12/25 01:40:23;;;;;;;0.82;0.77;;;;;;;6.48;100.00;97445.91;5032389;28;20039;-85
2020/12/25 01:42:49;;;;;;;0.82;0.47;;;;;;;6.51;100.00;97449.19;5032159;28;20053;-85
2020/12/25 01:45:14;;;;;;;0.73;0.60;;;;;;;6.44;100.00;97444.88;5035584;28;20018;-83
2020/12/25 01:47:40;;;;;;;0.70;0.70;;;;;;;6.46;100.00;97431.00;5051054;28;20383;-84
2020/12/25 01:50:06;;;;;;;0.30;0.30;;;;;;;6.35;100.00;97422.13;5035303;28;20028;-83
2020/12/25 01:52:33;;;;;;;1.50;0.68;;;;;;;6.29;100.00;97423.25;5035306;28;20025;-84
2020/12/25 01:54:58;;;;;;;1.52;0.95;;;;;;;6.31;100.00;97431.91;5035239;28;20033;-85
2020/12/25 01:57:24;;;;;;;0.50;0.50;;;;;;;6.32;100.00;97449.84;5017590;28;20029;-85
2020/12/25 01:59:51;;;;;;;0.68;0.60;;;;;;;6.23;100.00;97437.94;5035675;28;20087;-85
2020/12/25 02:02:17;;;;;;;0.90;0.30;;;;;;;6.29;100.00;97442.25;5034363;28;20074;-87
2020/12/25 02:04:43;;;;;;;0.47;0.43;;;;;;;6.31;100.00;97450.09;5051040;28;20041;-83
2020/12/25 02:07:08;;;;;;;0.47;0.43;;;;;;;6.28;100.00;97437.91;5034236;28;20037;-83
2020/12/25 02:09:33;;;;;;;0.30;0.30;;;;;;;6.27;100.00;97441.72;5017526;28;20068;-84
2020/12/25 02:11:59;;;;;;;0.43;0.40;;;;;;;6.16;100.00;97431.19;5034787;28;20079;-85
2020/12/25 02:14:25;;;;;;;0.43;0.40;;;;;;;6.16;100.00;97442.88;5014502;28;20073;-82
2020/12/25 02:16:50;;;;;;;0.45;0.45;;;;;;;6.12;100.00;97421.97;5033460;28;20121;-84
2020/12/25 02:19:15;;;;;;;;;;;;;;;6.15;100.00;97437.69;5034858;28;20033;-85
2020/12/25 02:21:41;;;;;;;0.35;0.32;;;;;;;6.12;100.00;97432.84;5034846;28;19913;-84
2020/12/25 02:24:08;;;;;;;0.68;0.30;;;;;;;6.07;100.00;97430.16;5016714;28;20033;-84
2020/12/25 02:26:34;;;;;;;0.32;0.30;;;;;;;6.15;100.00;97443.94;5049930;28;20025;-84
2020/12/25 02:29:00;;;;;;;0.38;0.30;;;;;;;6.12;100.00;97440.97;5034420;28;20508;-88
2020/12/25 02:31:25;;;;;;;0.20;0.20;;;;;;;6.13;100.00;97445.31;5034355;28;20029;-83
2020/12/25 02:33:51;;;;;;;0.38;0.30;;;;;;;6.09;100.00;97434.22;5049908;28;20120;-83
2020/12/25 02:36:16;;;;;;;0.30;0.30;;;;;;;6.04;100.00;97441.56;5016805;28;20022;-84
2020/12/25 02:38:41;;;;;;;0.10;0.10;;;;;;;6.06;100.00;97450.25;5034087;28;20026;-82
2020/12/25 02:41:07;;;;;;;;;;;;;;;6.06;100.00;97459.19;5016663;28;20116;-82
2020/12/25 02:43:32;;;;;;;0.65;0.30;;;;;;;6.05;100.00;97446.72;5049419;28;19913;-85
2020/12/25 02:45:57;;;;;;;0.30;0.30;;;;;;;5.96;100.00;97440.25;5049706;28;20421;-81
2020/12/25 02:48:23;;;;;;;0.20;0.20;;;;;;;5.96;100.00;97442.13;5016218;28;20018;-82
2020/12/25 02:50:48;;;;;;;1.85;0.60;;;;;;;5.93;100.00;97443.50;5033806;28;20029;-85
2020/12/25 02:53:14;;;;;;;0.30;0.30;;;;;;;5.89;100.00;97434.28;5016180;28;20553;-82
2020/12/25 02:55:39;;;;;;;0.40;0.35;;;;;;;5.90;100.00;97450.31;5032247;28;20123;-84
2020/12/25 02:58:04;;;;;;;0.47;0.32;;;;;;;5.91;100.00;97462.00;5048897;28;20108;-82
2020/12/25 03:00:30;;;;;;;0.10;0.10;;;;;;;5.88;100.00;97455.22;5033619;28;20029;-83
2020/12/25 03:02:55;;;;;;;0.68;0.68;;;;;;;5.83;100.00;97446.22;5016243;28;20061;-82
2020/12/25 03:05:21;;;;;;;1.35;0.30;;;;;;;5.77;100.00;97455.47;5033728;28;20413;-82
2020/12/25 03:07:46;;;;;;;;;;;;;;;5.70;100.00;97453.06;5048533;28;20116;-83
2020/12/25 03:10:11;;;;;;;0.20;0.20;;;;;;;5.64;100.00;97447.94;5033295;28;19919;-83
2020/12/25 03:12:36;;;;;;;;;;;;;;;5.66;100.00;97451.19;5033932;28;20037;-84
2020/12/25 03:15:03;;;;;;;0.22;0.22;;;;;;;5.61;100.00;97462.03;5031821;28;19920;-84
2020/12/25 03:17:28;;;;;;;0.75;0.50;;;;;;;5.43;100.00;97451.78;5015715;28;20025;-84
2020/12/25 03:19:54;;;;;;;0.30;0.30;;;;;;;5.33;100.00;97445.28;5016031;28;20021;-84
2020/12/25 03:22:19;;;;;;;;;;;;;;;5.30;100.00;97451.25;5049742;28;20024;-85
2020/12/25 03:24:44;;;;;;;0.73;0.50;;;;;;;5.21;100.00;97442.06;5034082;28;19913;-82
2020/12/25 03:27:09;;;;;;;;;;;;;;;5.20;100.00;97454.00;5033727;28;20029;-84
2020/12/25 03:29:35;;;;;;;0.50;0.40;;;;;;;5.16;100.00;97444.81;5032600;28;19917;-83
2020/12/25 03:32:00;;;;;;;0.28;0.28;;;;;;;5.20;100.00;97445.84;5034932;28;20037;-84
2020/12/25 03:34:28;;;;;;;;;;;;;;;5.23;100.00;97447.22;5021803;28;20095;-81
2020/12/25 03:36:53;;;;;;;;;;;;;;;5.23;100.00;97448.00;5048902;28;19917;-86
2020/12/25 03:39:20;;;;;;;0.40;0.40;;;;;;;5.14;100.00;97444.25;5048319;28;20004;-86
2020/12/25 03:41:45;;;;;;;0.50;0.50;;;;;;;5.06;100.00;97433.16;5037380;28;20026;-86
2020/12/25 03:44:11;;;;;;;0.30;0.30;;;;;;;5.14;100.00;97444.25;5044128;28;20028;-86
2020/12/25 03:46:36;;;;;;;;;;;;;;;5.12;100.00;97457.25;5052419;28;20045;-84
2020/12/25 03:49:07;;;;;;;0.28;0.28;;;;;;;5.04;100.00;97444.28;5041926;28;20003;-82
2020/12/25 03:51:32;;;;;;;0.10;0.10;;;;;;;5.11;100.00;97466.47;5034417;28;20095;-85
2020/12/25 03:53:58;;;;;;;0.20;0.20;;;;;;;5.16;100.00;97461.06;5050087;28;20033;-83
2020/12/25 03:56:24;;;;;;;0.40;0.40;;;;;;;5.12;100.00;97462.69;5015619;28;20025;-83
2020/12/25 03:58:49;;;;;;;0.10;0.10;;;;;;;5.05;100.00;97454.00;5032963;28;20025;-86
2020/12/25 04:01:15;;;;;;;0.52;0.52;;;;;;;5.07;100.00;97460.00;5016678;28;20067;-86
2020/12/25 04:03:40;;;;;;;0.20;0.20;;;;;;;5.10;100.00;97464.88;5017871;28;20033;-84
2020/12/25 04:06:06;;;;;;;0.28;0.28;;;;;;;5.02;100.00;97457.25;5052226;28;20398;-87
2020/12/25 04:08:31;;;;;;;0.20;0.20;;;;;;;4.96;100.00;97458.34;5012824;28;20360;-86
2020/12/25 04:10:56;;;;;;;;;;;;;;;4.96;100.00;97469.19;5015842;28;20117;-87
2020/12/25 04:13:22;;;;;;;0.40;0.40;;;;;;;4.97;100.00;97470.81;4997258;28;19917;-88
2020/12/25 04:15:48;;;;;;;0.40;0.20;;;;;;;4.94;100.00;97467.84;5013154;28;20037;-85
2020/12/25 04:18:13;;;;;;;1.75;0.20;;;;;;;4.96;100.00;97471.91;5013745;28;20065;-87
2020/12/25 04:20:39;;;;;;;0.20;0.20;;;;;;;5.00;100.00;97480.31;5012754;28;20026;-86
2020/12/25 04:23:04;;;;;;;;;;;;;;;5.04;100.00;97481.41;5013446;28;20138;-86
2020/12/25 04:25:29;;;;;;;0.30;0.30;;;;;;;4.91;100.00;97485.47;4996746;28;19920;-86
2020/12/25 04:27:55;;;;;;;;;;;;;;;4.92;100.00;97480.84;5028743;28;20080;-87
2020/12/25 04:30:20;;;;;;;0.10;0.10;;;;;;;4.83;100.00;97464.31;5034111;28;19905;-85
2020/12/25 04:32:45;;;;;;;;;;;;;;;4.85;100.00;97473.00;5013553;28;20486;-87
2020/12/25 04:35:11;;;;;;;0.75;0.40;;;;;;;4.84;100.00;97468.66;5014762;28;19917;-87
2020/12/25 04:37:36;;;;;;;;;;;;;;;4.79;100.00;97469.44;5033246;28;20026;-86
2020/12/25 04:40:04;;;;;;;0.30;0.30;;;;;;;4.81;100.00;97474.63;5034078;28;19913;-84
2020/12/25 04:42:30;;;;;;;0.73;0.30;;;;;;;4.81;100.00;97477.31;5030995;28;20022;-87
2020/12/25 04:44:55;;;;;;;0.10;0.10;;;;;;;4.71;100.00;97480.84;5027216;28;20033;-85
2020/12/25 04:47:21;;;;;;;0.32;0.32;;;;;;;4.66;100.00;97475.41;5013131;28;20033;-86
2020/12/25 04:49:48;;;;;;;0.43;0.30;;;;;;;4.66;100.00;97475.41;5013160;28;20036;-86
2020/12/25 04:52:13;;;;;;;0.20;0.20;;;;;;;4.66;100.00;97480.03;5029492;28;20401;-86
2020/12/25 04:54:39;;;;;;;0.15;0.15;;;;;;;4.61;100.00;97477.28;5014965;28;20120;-85
2020/12/25 04:57:04;;;;;;;;;;;;;;;4.86;100.00;97488.16;5015279;28;20026;-84
2020/12/25 04:59:30;;;;;;;0.38;0.38;;;;;;;4.77;100.00;97487.88;5032028;28;19917;-86
2020/12/25 05:01:56;;;;;;;;;;;;;;;4.81;100.00;97488.97;5032487;28;20854;-85
2020/12/25 05:04:24;;;;;;;1.00;0.45;;;;;;;4.71;100.00;97485.44;5031744;28;19912;-84
2020/12/25 05:06:54;;;;;;;0.20;0.20;;;;;;;4.65;100.00;97484.63;5014619;28;20030;-84
2020/12/25 05:09:24;;;;;;;1.55;0.30;;;;;;;4.63;100.00;97483.28;5010711;28;20034;-83
2020/12/25 05:11:51;;;;;;;0.17;0.17;;;;;;;4.62;100.00;97484.34;5011066;28;20502;-84
2020/12/25 05:14:17;;;;;;;0.22;0.22;;;;;;;4.56;100.00;97480.00;5015140;28;20038;-84
2020/12/25 05:16:45;;;;;;;2.40;0.95;;;;;;;4.60;100.00;97478.38;5013800;28;20048;-83
2020/12/25 05:19:12;;;;;;;0.20;0.20;;;;;;;4.63;100.00;97475.97;5034823;28;20029;-82
2020/12/25 05:21:39;;;;;;;0.50;0.50;;;;;;;4.70;100.00;97486.50;5034848;28;20076;-83
2020/12/25 05:24:07;;;;;;;0.88;0.45;;;;;;;4.65;100.00;97473.78;5036087;28;20025;-85
2020/12/25 05:26:33;;;;;;;0.20;0.20;;;;;;;4.72;100.00;97482.47;5034221;28;20379;-84
2020/12/25 05:29:00;;;;;;;0.38;0.38;;;;;;;4.62;100.00;97471.63;5018143;28;20029;-86
2020/12/25 05:31:25;;;;;;;0.47;0.47;;;;;;;4.59;100.00;97474.88;5036273;28;20068;-87
2020/12/25 05:33:51;;;;;;;0.20;0.20;;;;;;;4.56;100.00;97471.88;5039701;28;20018;-88
2020/12/25 05:36:17;;;;;;;0.88;0.50;;;;;;;4.56;100.00;97478.09;5019173;28;20029;-87
2020/12/25 05:38:49;;;;;;;0.30;0.20;;;;;;;4.58;100.00;97483.25;5032659;28;20050;-85
2020/12/25 05:41:15;;;;;;;0.30;0.30;;;;;;;4.54;100.00;97488.38;5018819;28;20049;-86
2020/12/25 05:43:50;;;;;;;0.55;0.30;;;;;;;4.58;100.00;97475.94;5017652;28;20030;-82
2020/12/25 05:46:16;;;;;;;0.80;0.52;;;;;;;4.53;100.00;97459.69;5034992;28;20068;-85
2020/12/25 05:48:41;;;;;;;0.22;0.22;;;;;;;4.51;100.00;97475.38;5033864;28;20493;-85
2020/12/25 05:51:09;;;;;;;0.10;0.10;;;;;;;4.50;100.00;97478.38;5034891;28;20033;-83
2020/12/25 05:53:42;;;;;;;0.93;0.93;;;;;;;4.54;100.00;97482.16;5033781;28;20022;-83
2020/12/25 05:56:08;;;;;;;5.57;3.38;;;;;;;4.55;100.00;97478.38;5033597;28;20047;-83
2020/12/25 05:58:34;;;;;;;0.68;0.68;;;;;;;4.65;100.00;97473.78;5034683;28;20103;-83
2020/12/25 06:01:00;;;;;;;0.82;0.80;;;;;;;4.60;100.00;97470.25;5033552;28;20539;-83
2020/12/25 06:03:26;;;;;;;1.80;1.55;;;;;;;4.64;100.00;97461.31;5028094;28;20021;-85
2020/12/25 06:05:55;;;;;;;20.00;11.45;;;;;;;4.58;100.00;97484.06;5015390;28;20506;-84
2020/12/25 06:08:41;;;;;;;1.58;1.20;;;;;;;4.45;100.00;97472.97;5015024;28;20022;-83
2020/12/25 06:11:06;;;;;;;0.50;0.50;;;;;;;4.40;100.00;97476.44;5015378;28;20036;-84
2020/12/25 06:13:42;;;;;;;0.20;0.20;;;;;;;4.43;100.00;97485.94;5029968;28;20049;-82
2020/12/25 06:16:20;;;;;;;0.30;0.30;;;;;;;4.45;100.00;97481.06;5014182;28;20160;-85
2020/12/25 06:19:08;;;;;;;0.50;0.50;;;;;;;4.55;100.00;97489.19;5014730;28;20048;-85
2020/12/25 06:21:48;;;;;;;0.47;0.40;;;;;;;4.58;100.00;97478.66;5015018;28;20026;-83
2020/12/25 06:24:15;;;;;;;0.20;0.20;;;;;;;4.37;100.00;97470.75;5012701;28;20506;-86
2020/12/25 06:26:41;;;;;;;1.20;0.68;;;;;;;4.48;100.00;97492.16;4997720;28;20042;-82
2020/12/25 06:29:06;;;;;;;1.13;0.40;;;;;;;4.41;100.00;97488.09;5030280;28;20030;-84
2020/12/25 06:31:46;;;;;;;0.30;0.30;;;;;;;4.44;100.00;97493.78;5015771;28;20033;-85
2020/12/25 06:34:13;;;;;;;0.30;0.30;;;;;;;4.38;100.00;97494.06;4998003;28;20077;-87
2020/12/25 06:36:43;;;;;;;0.40;0.40;;;;;;;4.41;100.00;97504.34;4998435;28;20028;-85
2020/12/25 06:39:11;;;;;;;0.30;0.30;;;;;;;4.33;100.00;97498.34;5015475;28;20475;-87
2020/12/25 06:41:37;;;;;;;0.52;0.50;;;;;;;4.50;100.00;97505.44;5015447;28;20438;-86
2020/12/25 06:44:07;;;;;;;0.65;0.65;;;;;;;4.44;100.00;97509.22;5015459;28;20026;-84
2020/12/25 06:46:34;;;;;;;0.75;0.75;;;;;;;4.33;100.00;97498.34;5012218;28;20052;-83
2020/12/25 06:49:07;;;;;;;2.35;1.08;;;;;;;4.46;100.00;97499.75;5029372;28;20034;-86
2020/12/25 06:51:43;;;;;;;0.90;0.82;;;;;;;4.38;100.00;97494.06;5014264;28;20559;-86
2020/12/25 06:54:19;;;;;;;0.68;0.68;;;;;;;4.41;100.00;97496.22;5015268;28;20034;-85
2020/12/25 06:56:47;;;;;;;0.30;0.30;;;;;;;4.42;100.00;97505.97;4997600;28;20022;-87
2020/12/25 06:59:17;;;;;;;0.40;0.40;;;;;;;4.36;100.00;97501.59;5014207;28;20046;-85
2020/12/25 07:01:44;;;;;;;0.63;0.40;;;;;;;4.34;100.00;97504.59;5012717;28;20036;-86
2020/12/25 07:04:32;;;;;;;0.50;0.50;;;;;;;4.41;100.00;97509.75;5011496;28;20029;-86
2020/12/25 07:07:06;;;;;;;1.45;0.82;;;;;;;4.96;100.00;97512.53;5016900;28;20474;-85
2020/12/25 07:09:43;;;;;;;0.50;0.50;;;;;;;4.70;100.00;97513.59;5015377;28;20096;-86
2020/12/25 07:12:29;;;;;;;1.52;0.80;;;;;;;4.97;100.00;97514.19;5036587;28;20036;-85
2020/12/25 07:14:54;;;;;;;0.77;0.77;;;;;;;4.51;100.00;97488.13;5033198;28;20053;-84
2020/12/25 07:17:20;;;;;;;0.95;0.60;;;;;;;5.30;100.00;97518.22;5044695;28;20084;-82
2020/12/25 07:19:45;;;;;;;0.70;0.70;;;;;;;5.40;100.00;97519.03;5035131;28;20479;-85
2020/12/25 07:22:11;;;;;;;;;;;;;;;5.87;100.00;97517.91;5044059;28;20100;-82
2020/12/25 07:24:41;;;;;;;8.52;4.30;;;;;;;5.62;98.48;97518.75;5050754;28;19917;-84
2020/12/25 07:27:08;;;;;;;3.80;3.28;;;;;;;4.98;99.85;97513.06;5030444;28;20064;-82
2020/12/25 07:29:34;;;;;;;19.33;5.72;;;;;;;4.81;100.00;97515.25;5042783;28;20036;-85
2020/12/25 07:32:00;;;;;;;1.92;1.73;;;;;;;4.94;100.00;97522.03;5042843;28;20092;-84
2020/12/25 07:34:26;;;;;;;1.25;1.17;;;;;;;4.78;100.00;97523.91;5043282;28;20029;-84
2020/12/25 07:36:53;;;;;;;27.65;13.85;;;;;;;5.13;100.00;97528.56;5035352;28;20034;-84
2020/12/25 07:39:23;;;;;;;54.42;21.00;;;;;;;5.53;100.00;97538.56;5012982;28;20030;-83
2020/12/25 07:41:49;;;;;;;24.38;11.32;;;;;;;5.64;97.66;97513.06;5014969;28;20037;-84
2020/12/25 07:44:15;;;;;;;53.67;21.80;;;;;;;6.06;97.30;97527.06;4995920;28;20022;-83
2020/12/25 07:46:40;;;;;;;37.53;18.50;;;;;;;6.29;95.48;97523.72;5024187;28;21018;-83
2020/12/25 07:49:07;;;;;;;28.23;11.60;;;;;;;6.11;96.00;97524.31;5013017;28;20153;-85
2020/12/25 07:51:34;;;;;;;16.30;8.65;;;;;;;5.86;96.22;97540.69;5013735;28;20029;-83
2020/12/25 07:54:01;;;;;;;28.73;10.07;;;;;;;5.80;97.73;97533.63;5031574;28;20438;-87
2020/12/25 07:56:29;;;;;;;102.47;39.95;;;;;;;5.70;97.15;97528.22;5013054;28;20389;-84
2020/12/25 07:58:55;;;;;;;5.40;3.08;;;;;;;5.04;98.86;97531.00;5028836;28;20033;-85
2020/12/25 08:01:22;;;;;;;3.60;1.50;;;;;;;4.86;100.00;97529.59;5033336;28;20391;-85
2020/12/25 08:03:48;;;;;;;1.75;1.10;;;;;;;4.75;100.00;97530.69;5033284;28;20061;-83
2020/12/25 08:06:15;;;;;;;1.63;0.88;;;;;;;4.78;100.00;97534.75;5015799;28;20065;-85
2020/12/25 08:08:45;;;;;;;3.30;1.60;;;;;;;4.70;100.00;97524.44;5032847;28;20490;-84
2020/12/25 08:11:12;;;;;;;1.23;1.20;;;;;;;4.79;100.00;97536.38;5032517;28;20029;-86
2020/12/25 08:13:39;;;;;;;20.38;8.68;;;;;;;4.73;100.00;97529.34;5033498;28;20045;-83
2020/12/25 08:16:05;;;;;;;44.45;19.42;;;;;;;4.94;100.00;97541.81;5033029;28;20051;-84
2020/12/25 08:18:30;;;;;;;9.88;3.72;;;;;;;4.93;100.00;97545.59;5014586;28;20114;-85
2020/12/25 08:20:57;;;;;;;238.68;100.43;;;;;;;5.31;100.00;97534.25;5011623;28;20025;-86
2020/12/25 08:23:23;;;;;;;284.25;128.00;;;;;;;6.09;100.00;97550.94;5021232;28;20037;-84
2020/12/25 08:25:55;;;;;;;44.65;21.63;;;;;;;5.78;100.00;97554.78;5011490;28;20071;-83
2020/12/25 08:28:23;;;;;;;214.50;93.13;;;;;;;6.21;99.72;97551.44;5027568;28;20032;-82
2020/12/25 08:30:49;;;;;;;80.07;39.28;;;;;;;5.78;99.48;97558.31;5032193;28;20033;-84
2020/12/25 08:33:22;;;;;;;96.53;45.58;;;;;;;6.52;98.99;97556.75;5011228;28;20037;-86
2020/12/25 08:35:48;;;;;;;36.88;19.13;;;;;;;6.14;98.85;97550.91;5011774;28;20026;-86
2020/12/25 08:38:16;;;;;;;76.53;36.03;;;;;;;6.12;98.88;97547.69;5021717;28;20041;-84
2020/12/25 08:40:43;;;;;;;8.45;6.82;;;;;;;5.53;97.61;97543.97;5025250;28;20043;-86
2020/12/25 08:43:17;;;;;;;4.78;3.70;;;;;;;5.31;98.58;97555.13;5014029;28;20019;-82
2020/12/25 08:45:59;;;;;;;31.50;16.00;;;;;;;5.28;99.56;97561.91;5025099;28;20033;-85
2020/12/25 08:48:25;;;;;;;4.13;2.60;;;;;;;5.07;100.00;97557.56;5021135;28;20109;-84
2020/12/25 08:50:51;;;;;;;67.75;29.38;;;;;;;5.58;100.00;97565.66;5026975;28;20056;-88
2020/12/25 08:53:20;;;;;;;17.38;7.70;;;;;;;5.62;99.34;97561.31;5018202;28;20474;-84
2020/12/25 08:55:50;;;;;;;11.18;6.55;;;;;;;5.84;98.80;97556.41;5027807;28;20033;-84
2020/12/25 08:58:20;;;;;;;8.55;4.70;;;;;;;5.75;97.67;97555.34;5025657;28;20077;-82
2020/12/25 09:01:03;;;;;;;2.33;1.80;;;;;;;5.25;99.43;97558.91;5007889;28;20035;-81
2020/12/25 09:03:39;;;;;;;2.03;1.73;;;;;;;5.28;100.00;97572.75;5030632;28;20024;-85
2020/12/25 09:06:05;;;;;;;4.30;2.92;;;;;;;5.43;100.00;97573.81;5002330;28;20125;-87
2020/12/25 09:08:31;;;;;;;3.47;2.00;;;;;;;5.30;100.00;97573.28;5022759;28;20093;-86
2020/12/25 09:10:57;;;;;;;4.10;2.70;;;;;;;5.45;100.00;97577.09;5027725;28;20038;-85
2020/12/25 09:13:22;;;;;;;2.95;2.30;;;;;;;5.36;100.00;97576.78;5030196;28;20104;-86
2020/12/25 09:15:48;;;;;;;3.67;2.42;;;;;;;5.38;100.00;97580.06;5019341;28;20041;-87
2020/12/25 09:18:13;;;;;;;3.25;2.40;;;;;;;5.33;100.00;97572.72;5014330;28;20033;-85
2020/12/25 09:20:39;;;;;;;2.25;2.03;;;;;;;5.52;100.00;97574.88;5014179;28;20049;-86
2020/12/25 09:23:04;;;;;;;;;;;;;;;5.56;100.00;97594.97;5019331;28;20034;-87
2020/12/25 09:25:29;;;;;;;3.50;1.98;;;;;;;5.41;100.00;97603.94;5020166;28;19917;-87
2020/12/25 09:27:54;;;;;;;;;;;;;;;5.36;100.00;97599.31;5015418;28;20121;-87
2020/12/25 09:30:20;;;;;;;4.15;2.75;;;;;;;5.44;100.00;97605.28;5014746;28;20364;-87
2020/12/25 09:32:45;;;;;;;8.65;5.60;;;;;;;5.37;100.00;97595.53;5014196;28;20053;-85
2020/12/25 09:35:14;;;;;;;43.13;26.17;;;;;;;5.25;100.00;97594.97;5030988;28;20033;-85
2020/12/25 09:37:39;;;;;;;8.32;4.30;;;;;;;5.21;99.76;97590.34;5023356;28;20026;-85
2020/12/25 09:40:04;;;;;;;5.47;3.25;;;;;;;5.21;100.00;97585.75;5014763;28;20045;-86
2020/12/25 09:42:30;;;;;;;2.80;2.45;;;;;;;5.21;100.00;97580.31;5013709;28;20141;-85
2020/12/25 09:44:55;;;;;;;2.40;1.92;;;;;;;5.12;100.00;97552.13;5008893;28;20098;-85
2020/12/25 09:47:22;;;;;;;3.83;2.65;;;;;;;5.36;100.00;97585.75;5014972;28;20048;-86
2020/12/25 09:49:48;;;;;;;2.08;1.88;;;;;;;5.29;100.00;97571.63;5011960;28;20120;-84
2020/12/25 09:52:13;;;;;;;4.80;2.33;;;;;;;5.19;100.00;97571.66;5010650;28;20112;-85
2020/12/25 09:54:39;;;;;;;4.88;2.67;;;;;;;5.38;100.00;97567.31;5013662;28;20040;-86
2020/12/25 09:57:04;;;;;;;2.85;2.30;;;;;;;5.42;99.72;97594.69;5026164;28;20057;-84
2020/12/25 09:59:30;;;;;;;1.98;1.30;;;;;;;5.56;99.19;97582.22;5013178;28;20479;-83
2020/12/25 10:01:56;;;;;;;4.50;2.20;;;;;;;5.59;99.21;97575.44;5022483;28;20026;-83
2020/12/25 10:04:24;;;;;;;2.45;2.10;;;;;;;5.65;98.68;97568.91;5019080;28;20026;-84
2020/12/25 10:06:50;;;;;;;5.10;2.17;;;;;;;5.58;98.96;97571.09;5022034;28;20079;-82
2020/12/25 10:09:15;;;;;;;2.90;2.25;;;;;;;5.50;98.43;97572.47;5031011;28;20050;-85
2020/12/25 10:11:41;;;;;;;4.25;2.78;;;;;;;5.38;98.45;97575.47;5035276;28;20040;-86
2020/12/25 10:14:06;;;;;;;6.75;4.40;;;;;;;5.53;99.83;97571.09;5014239;28;20077;-86
2020/12/25 10:16:33;;;;;;;;;;;;;;;5.59;98.83;97578.97;5033846;28;20029;-87
2020/12/25 10:18:59;;;;;;;28.30;13.90;;;;;;;5.34;98.85;97563.53;5022304;28;19917;-86
2020/12/25 10:21:24;;;;;;;;;;;;;;;5.58;99.55;97573.81;5036432;28;20278;-86
2020/12/25 10:23:49;;;;;;;9.07;3.20;;;;;;;5.50;99.08;97571.66;5032065;28;20007;-86
2020/12/25 10:26:18;;;;;;;3.20;2.30;;;;;;;5.39;99.14;97565.41;5018580;28;20026;-81
2020/12/25 10:28:43;;;;;;;3.80;2.38;;;;;;;5.25;99.49;97557.03;5027566;28;20030;-85
2020/12/25 10:31:09;;;;;;;1.90;1.70;;;;;;;5.34;99.38;97563.53;5020491;28;20029;-86
2020/12/25 10:33:37;;;;;;;2.10;1.48;;;;;;;5.34;98.67;97568.94;5026410;28;20467;-84
2020/12/25 10:36:04;;;;;;;2.03;1.50;;;;;;;5.32;98.93;97544.00;5020780;28;20025;-85
2020/12/25 10:38:30;;;;;;;1.63;1.52;;;;;;;5.35;98.39;97554.31;5018767;28;20038;-84
2020/12/25 10:40:55;;;;;;;1.90;1.40;;;;;;;5.44;99.21;97551.03;5019687;28;20029;-86
2020/12/25 10:43:21;;;;;;;2.08;1.38;;;;;;;5.40;98.38;97562.44;5019084;28;20475;-86
2020/12/25 10:45:46;;;;;;;;;;;;;;;5.37;98.01;97568.41;5037124;28;20021;-82
2020/12/25 10:48:12;;;;;;;1.90;1.42;;;;;;;5.30;97.67;97562.44;5014167;28;19917;-86
2020/12/25 10:50:38;;;;;;;;;;;;;;;5.52;98.41;97567.56;5052975;28;20097;-86
2020/12/25 10:53:03;;;;;;;1.73;1.60;;;;;;;5.49;97.88;97554.56;5040297;28;19953;-86
2020/12/25 10:55:29;;;;;;;3.08;1.77;;;;;;;5.39;96.59;97549.13;5045093;28;20037;-87
2020/12/25 10:57:54;;;;;;;3.13;2.05;;;;;;;5.43;97.30;97568.38;5023849;28;20033;-89
2020/12/25 11:00:20;;;;;;;;;;;;;;;5.51;98.20;97565.16;5050373;28;20037;-87
2020/12/25 11:02:46;;;;;;;4.78;1.83;;;;;;;5.48;98.70;97541.28;5048140;28;19924;-86
2020/12/25 11:05:16;;;;;;;2.53;1.67;;;;;;;5.58;97.51;97554.81;5023642;28;20060;-86
2020/12/25 11:07:42;;;;;;;5.65;2.90;;;;;;;5.86;99.48;97551.53;5030669;28;20490;-86
2020/12/25 11:10:07;;;;;;;3.83;2.38;;;;;;;5.91;97.15;97554.25;5022665;28;20043;-86
2020/12/25 11:12:32;;;;;;;2.03;1.75;;;;;;;5.65;96.39;97549.94;5022265;28;20038;-84
2020/12/25 11:14:58;;;;;;;4.50;1.70;;;;;;;5.67;96.67;97551.28;5026044;28;20042;-84
2020/12/25 11:17:23;;;;;;;2.53;1.73;;;;;;;5.81;95.87;97556.97;5026010;28;20710;-83
2020/12/25 11:19:49;;;;;;;3.80;2.40;;;;;;;6.00;96.73;97557.22;5009098;28;20434;-85
2020/12/25 11:22:14;;;;;;;3.45;2.20;;;;;;;5.66;96.04;97535.28;5019549;28;20057;-85
2020/12/25 11:24:41;;;;;;;2.15;1.38;;;;;;;5.89;97.08;97527.38;5011708;28;20037;-83
2020/12/25 11:27:10;;;;;;;2.50;1.98;;;;;;;5.81;95.95;97540.69;5006674;28;20750;-85
2020/12/25 11:29:36;;;;;;;3.03;1.65;;;;;;;5.69;95.20;97540.97;5014068;28;20036;-87
2020/12/25 11:32:02;;;;;;;1.98;1.73;;;;;;;5.50;95.63;97545.34;5023807;28;20021;-86
2020/12/25 11:34:31;;;;;;;2.15;1.52;;;;;;;5.45;96.25;97547.25;5019714;28;20060;-85
2020/12/25 11:36:56;;;;;;;9.52;1.65;;;;;;;5.38;96.51;97548.34;5014036;28;20026;-86
2020/12/25 11:39:24;;;;;;;5.13;3.28;;;;;;;5.33;98.09;97544.81;5019300;28;20372;-83
2020/12/25 11:41:50;;;;;;;5.10;1.80;;;;;;;5.24;97.33;97541.81;5004830;28;20109;-84